sensor_id;sensor_type;location;lat;lon;timestamp;P1;durP1;ratioP1;P2;durP2;ratioP2
7440;SDS011;29616;51.950;8.572;2022-10-17T00:01:10;13.88;;;7.07;;
7440;SDS011;29616;51.950;8.572;2022-10-17T00:03:39;14.27;;;7.05;;
7440;SDS011;29616;51.950;8.572;2022-10-17T00:06:08;13.63;;;7.63;;
7440;SDS011;29616;51.950;8.572;2022-10-17T00:08:39;15.63;;;7.43;;
7440;SDS011;29616;51.950;8.572;2022-10-17T00:11:12;11.75;;;6.90;;
7440;SDS011;29616;51.950;8.572;2022-10-17T00:13:45;15.18;;;7.45;;
7440;SDS011;29616;51.950;8.572;2022-10-17T00:16:14;15.93;;;7.13;;
7440;SDS011;29616;51.950;8.572;2022-10-17T00:18:49;12.48;;;7.38;;
7440;SDS011;29616;51.950;8.572;2022-10-17T00:21:18;17.27;;;8.57;;
7440;SDS011;29616;51.950;8.572;2022-10-17T00:23:47;18.13;;;8.25;;
7440;SDS011;29616;51.950;8.572;2022-10-17T00:26:17;19.38;;;9.00;;
7440;SDS011;29616;51.950;8.572;2022-10-17T00:28:50;22.95;;;8.85;;
7440;SDS011;29616;51.950;8.572;2022-10-17T00:31:20;17.90;;;8.98;;
7440;SDS011;29616;51.950;8.572;2022-10-17T00:33:51;18.77;;;8.20;;
7440;SDS011;29616;51.950;8.572;2022-10-17T00:36:20;16.52;;;8.80;;
7440;SDS011;29616;51.950;8.572;2022-10-17T00:38:52;15.95;;;8.52;;
7440;SDS011;29616;51.950;8.572;2022-10-17T00:41:25;17.40;;;9.07;;
7440;SDS011;29616;51.950;8.572;2022-10-17T00:43:57;17.90;;;7.65;;
7440;SDS011;29616;51.950;8.572;2022-10-17T00:46:28;19.00;;;8.27;;
7440;SDS011;29616;51.950;8.572;2022-10-17T00:49:00;16.17;;;8.30;;
7440;SDS011;29616;51.950;8.572;2022-10-17T00:51:33;16.55;;;8.38;;
7440;SDS011;29616;51.950;8.572;2022-10-17T00:54:08;19.08;;;8.85;;
7440;SDS011;29616;51.950;8.572;2022-10-17T00:56:39;16.00;;;8.02;;
7440;SDS011;29616;51.950;8.572;2022-10-17T00:59:10;15.93;;;8.80;;
7440;SDS011;29616;51.950;8.572;2022-10-17T01:01:40;16.10;;;8.88;;
7440;SDS011;29616;51.950;8.572;2022-10-17T01:04:15;15.65;;;8.13;;
7440;SDS011;29616;51.950;8.572;2022-10-17T01:06:44;20.02;;;9.27;;
7440;SDS011;29616;51.950;8.572;2022-10-17T01:09:12;18.48;;;8.73;;
7440;SDS011;29616;51.950;8.572;2022-10-17T01:11:43;15.60;;;8.85;;
7440;SDS011;29616;51.950;8.572;2022-10-17T01:14:20;15.55;;;8.75;;
7440;SDS011;29616;51.950;8.572;2022-10-17T01:16:57;18.45;;;7.88;;
7440;SDS011;29616;51.950;8.572;2022-10-17T01:19:34;14.88;;;7.65;;
7440;SDS011;29616;51.950;8.572;2022-10-17T01:22:25;17.58;;;8.13;;
7440;SDS011;29616;51.950;8.572;2022-10-17T01:25:06;16.65;;;7.75;;
7440;SDS011;29616;51.950;8.572;2022-10-17T01:28:02;17.65;;;8.57;;
7440;SDS011;29616;51.950;8.572;2022-10-17T01:30:53;13.15;;;7.28;;
7440;SDS011;29616;51.950;8.572;2022-10-17T01:33:31;16.70;;;8.05;;
7440;SDS011;29616;51.950;8.572;2022-10-17T01:36:16;15.20;;;8.25;;
7440;SDS011;29616;51.950;8.572;2022-10-17T01:39:03;17.55;;;8.68;;
7440;SDS011;29616;51.950;8.572;2022-10-17T01:41:42;21.13;;;8.68;;
7440;SDS011;29616;51.950;8.572;2022-10-17T01:44:19;18.45;;;9.35;;
7440;SDS011;29616;51.950;8.572;2022-10-17T01:46:56;17.33;;;8.73;;
7440;SDS011;29616;51.950;8.572;2022-10-17T01:49:30;16.30;;;8.35;;
7440;SDS011;29616;51.950;8.572;2022-10-17T01:52:02;17.20;;;9.27;;
7440;SDS011;29616;51.950;8.572;2022-10-17T01:54:37;17.27;;;8.57;;
7440;SDS011;29616;51.950;8.572;2022-10-17T01:57:10;16.83;;;8.52;;
7440;SDS011;29616;51.950;8.572;2022-10-17T01:59:45;18.20;;;8.75;;
7440;SDS011;29616;51.950;8.572;2022-10-17T02:02:21;16.38;;;8.45;;
7440;SDS011;29616;51.950;8.572;2022-10-17T02:04:52;20.50;;;9.57;;
7440;SDS011;29616;51.950;8.572;2022-10-17T02:07:23;20.45;;;9.05;;
7440;SDS011;29616;51.950;8.572;2022-10-17T02:09:52;16.80;;;8.95;;
7440;SDS011;29616;51.950;8.572;2022-10-17T02:12:27;18.45;;;8.85;;
7440;SDS011;29616;51.950;8.572;2022-10-17T02:15:19;18.92;;;9.13;;
7440;SDS011;29616;51.950;8.572;2022-10-17T02:18:15;22.23;;;9.30;;
7440;SDS011;29616;51.950;8.572;2022-10-17T02:20:59;16.92;;;8.98;;
7440;SDS011;29616;51.950;8.572;2022-10-17T02:23:37;18.98;;;8.90;;
7440;SDS011;29616;51.950;8.572;2022-10-17T02:26:15;21.52;;;9.40;;
7440;SDS011;29616;51.950;8.572;2022-10-17T02:28:53;15.85;;;8.40;;
7440;SDS011;29616;51.950;8.572;2022-10-17T02:31:32;23.55;;;9.48;;
7440;SDS011;29616;51.950;8.572;2022-10-17T02:34:08;20.80;;;9.02;;
7440;SDS011;29616;51.950;8.572;2022-10-17T02:36:46;20.77;;;9.13;;
7440;SDS011;29616;51.950;8.572;2022-10-17T02:39:20;19.17;;;9.25;;
7440;SDS011;29616;51.950;8.572;2022-10-17T02:41:51;22.42;;;8.95;;
7440;SDS011;29616;51.950;8.572;2022-10-17T02:44:23;17.85;;;8.95;;
7440;SDS011;29616;51.950;8.572;2022-10-17T02:46:53;19.92;;;8.80;;
7440;SDS011;29616;51.950;8.572;2022-10-17T02:49:30;18.50;;;9.25;;
7440;SDS011;29616;51.950;8.572;2022-10-17T02:52:06;19.95;;;9.95;;
7440;SDS011;29616;51.950;8.572;2022-10-17T02:54:40;22.13;;;9.70;;
7440;SDS011;29616;51.950;8.572;2022-10-17T02:57:14;21.52;;;10.05;;
7440;SDS011;29616;51.950;8.572;2022-10-17T02:59:48;19.75;;;10.20;;
7440;SDS011;29616;51.950;8.572;2022-10-17T03:02:17;21.00;;;9.52;;
7440;SDS011;29616;51.950;8.572;2022-10-17T03:04:47;20.92;;;9.18;;
7440;SDS011;29616;51.950;8.572;2022-10-17T03:07:15;21.40;;;9.55;;
7440;SDS011;29616;51.950;8.572;2022-10-17T03:09:43;22.23;;;9.95;;
7440;SDS011;29616;51.950;8.572;2022-10-17T03:12:12;21.10;;;9.57;;
7440;SDS011;29616;51.950;8.572;2022-10-17T03:14:40;22.33;;;9.80;;
7440;SDS011;29616;51.950;8.572;2022-10-17T03:17:08;23.58;;;9.85;;
7440;SDS011;29616;51.950;8.572;2022-10-17T03:19:36;18.60;;;8.90;;
7440;SDS011;29616;51.950;8.572;2022-10-17T03:22:06;21.65;;;10.45;;
7440;SDS011;29616;51.950;8.572;2022-10-17T03:24:35;21.42;;;10.18;;
7440;SDS011;29616;51.950;8.572;2022-10-17T03:27:03;26.80;;;11.57;;
7440;SDS011;29616;51.950;8.572;2022-10-17T03:29:32;21.55;;;9.45;;
7440;SDS011;29616;51.950;8.572;2022-10-17T03:32:01;23.58;;;10.43;;
7440;SDS011;29616;51.950;8.572;2022-10-17T03:34:30;22.25;;;9.88;;
7440;SDS011;29616;51.950;8.572;2022-10-17T03:36:59;25.73;;;10.15;;
7440;SDS011;29616;51.950;8.572;2022-10-17T03:39:30;16.63;;;7.75;;
7440;SDS011;29616;51.950;8.572;2022-10-17T03:41:59;23.17;;;9.45;;
7440;SDS011;29616;51.950;8.572;2022-10-17T03:44:27;26.17;;;10.45;;
7440;SDS011;29616;51.950;8.572;2022-10-17T03:46:57;22.13;;;9.82;;
7440;SDS011;29616;51.950;8.572;2022-10-17T03:49:26;24.88;;;9.70;;
7440;SDS011;29616;51.950;8.572;2022-10-17T03:51:54;23.38;;;9.93;;
7440;SDS011;29616;51.950;8.572;2022-10-17T03:54:23;28.77;;;11.02;;
7440;SDS011;29616;51.950;8.572;2022-10-17T03:56:53;22.83;;;10.45;;
7440;SDS011;29616;51.950;8.572;2022-10-17T03:59:22;21.10;;;9.60;;
7440;SDS011;29616;51.950;8.572;2022-10-17T04:02:01;25.98;;;9.40;;
7440;SDS011;29616;51.950;8.572;2022-10-17T04:04:29;24.05;;;10.43;;
7440;SDS011;29616;51.950;8.572;2022-10-17T04:06:57;24.92;;;10.48;;
7440;SDS011;29616;51.950;8.572;2022-10-17T04:09:26;23.55;;;10.63;;
7440;SDS011;29616;51.950;8.572;2022-10-17T04:12:04;28.17;;;10.35;;
7440;SDS011;29616;51.950;8.572;2022-10-17T04:14:35;24.50;;;10.02;;
7440;SDS011;29616;51.950;8.572;2022-10-17T04:17:04;25.83;;;10.30;;
7440;SDS011;29616;51.950;8.572;2022-10-17T04:19:33;26.38;;;10.30;;
7440;SDS011;29616;51.950;8.572;2022-10-17T04:22:01;25.10;;;11.00;;
7440;SDS011;29616;51.950;8.572;2022-10-17T04:24:33;25.67;;;10.68;;
7440;SDS011;29616;51.950;8.572;2022-10-17T04:27:06;25.45;;;10.65;;
7440;SDS011;29616;51.950;8.572;2022-10-17T04:29:39;24.90;;;10.07;;
7440;SDS011;29616;51.950;8.572;2022-10-17T04:32:14;22.92;;;11.25;;
7440;SDS011;29616;51.950;8.572;2022-10-17T04:37:27;23.30;;;9.55;;
7440;SDS011;29616;51.950;8.572;2022-10-17T04:39:58;23.17;;;9.88;;
7440;SDS011;29616;51.950;8.572;2022-10-17T04:42:31;26.15;;;11.35;;
7440;SDS011;29616;51.950;8.572;2022-10-17T04:45:00;23.20;;;10.85;;
7440;SDS011;29616;51.950;8.572;2022-10-17T04:47:28;26.25;;;10.60;;
7440;SDS011;29616;51.950;8.572;2022-10-17T04:49:56;24.27;;;9.70;;
7440;SDS011;29616;51.950;8.572;2022-10-17T04:52:25;27.17;;;11.10;;
7440;SDS011;29616;51.950;8.572;2022-10-17T04:54:53;24.92;;;10.93;;
7440;SDS011;29616;51.950;8.572;2022-10-17T04:57:22;20.55;;;10.07;;
7440;SDS011;29616;51.950;8.572;2022-10-17T05:00:00;23.73;;;10.57;;
7440;SDS011;29616;51.950;8.572;2022-10-17T05:02:48;24.00;;;11.20;;
7440;SDS011;29616;51.950;8.572;2022-10-17T05:05:16;23.85;;;11.25;;
7440;SDS011;29616;51.950;8.572;2022-10-17T05:07:47;25.50;;;11.37;;
7440;SDS011;29616;51.950;8.572;2022-10-17T05:10:18;22.83;;;10.27;;
7440;SDS011;29616;51.950;8.572;2022-10-17T05:12:48;23.77;;;10.48;;
7440;SDS011;29616;51.950;8.572;2022-10-17T05:15:22;23.30;;;9.70;;
7440;SDS011;29616;51.950;8.572;2022-10-17T05:17:53;20.25;;;10.00;;
7440;SDS011;29616;51.950;8.572;2022-10-17T05:20:23;24.13;;;10.55;;
7440;SDS011;29616;51.950;8.572;2022-10-17T05:22:52;28.50;;;10.07;;
7440;SDS011;29616;51.950;8.572;2022-10-17T05:25:20;24.63;;;10.50;;
7440;SDS011;29616;51.950;8.572;2022-10-17T05:27:49;21.23;;;10.55;;
7440;SDS011;29616;51.950;8.572;2022-10-17T05:30:18;23.55;;;10.73;;
7440;SDS011;29616;51.950;8.572;2022-10-17T05:32:52;23.42;;;9.93;;
7440;SDS011;29616;51.950;8.572;2022-10-17T05:35:21;22.75;;;10.10;;
7440;SDS011;29616;51.950;8.572;2022-10-17T05:37:51;21.73;;;10.38;;
7440;SDS011;29616;51.950;8.572;2022-10-17T05:40:20;23.35;;;10.35;;
7440;SDS011;29616;51.950;8.572;2022-10-17T05:42:51;23.77;;;10.63;;
7440;SDS011;29616;51.950;8.572;2022-10-17T05:45:20;21.98;;;10.55;;
7440;SDS011;29616;51.950;8.572;2022-10-17T05:47:49;22.02;;;11.40;;
7440;SDS011;29616;51.950;8.572;2022-10-17T05:50:19;22.55;;;10.02;;
7440;SDS011;29616;51.950;8.572;2022-10-17T05:53:01;20.52;;;10.13;;
7440;SDS011;29616;51.950;8.572;2022-10-17T05:55:31;22.73;;;10.20;;
7440;SDS011;29616;51.950;8.572;2022-10-17T05:57:59;23.27;;;10.82;;
7440;SDS011;29616;51.950;8.572;2022-10-17T06:00:33;20.02;;;10.18;;
7440;SDS011;29616;51.950;8.572;2022-10-17T06:03:02;18.35;;;9.88;;
7440;SDS011;29616;51.950;8.572;2022-10-17T06:05:31;25.20;;;10.57;;
7440;SDS011;29616;51.950;8.572;2022-10-17T06:08:02;26.70;;;11.60;;
7440;SDS011;29616;51.950;8.572;2022-10-17T06:10:33;23.70;;;10.52;;
7440;SDS011;29616;51.950;8.572;2022-10-17T06:13:02;22.98;;;11.40;;
7440;SDS011;29616;51.950;8.572;2022-10-17T06:15:30;24.30;;;11.38;;
7440;SDS011;29616;51.950;8.572;2022-10-17T06:18:03;24.67;;;11.25;;
7440;SDS011;29616;51.950;8.572;2022-10-17T06:20:34;24.23;;;10.38;;
7440;SDS011;29616;51.950;8.572;2022-10-17T06:23:02;26.10;;;11.52;;
7440;SDS011;29616;51.950;8.572;2022-10-17T06:25:47;22.17;;;10.45;;
7440;SDS011;29616;51.950;8.572;2022-10-17T06:28:15;26.02;;;10.48;;
7440;SDS011;29616;51.950;8.572;2022-10-17T06:30:44;26.50;;;12.45;;
7440;SDS011;29616;51.950;8.572;2022-10-17T06:33:13;20.92;;;9.90;;
7440;SDS011;29616;51.950;8.572;2022-10-17T06:35:43;23.75;;;11.02;;
7440;SDS011;29616;51.950;8.572;2022-10-17T06:38:19;23.02;;;11.10;;
7440;SDS011;29616;51.950;8.572;2022-10-17T06:40:50;27.52;;;11.95;;
7440;SDS011;29616;51.950;8.572;2022-10-17T06:43:19;24.20;;;10.40;;
7440;SDS011;29616;51.950;8.572;2022-10-17T06:46:13;28.83;;;11.50;;
7440;SDS011;29616;51.950;8.572;2022-10-17T06:48:54;24.70;;;11.35;;
7440;SDS011;29616;51.950;8.572;2022-10-17T06:51:42;27.40;;;12.20;;
7440;SDS011;29616;51.950;8.572;2022-10-17T06:54:13;25.75;;;11.90;;
7440;SDS011;29616;51.950;8.572;2022-10-17T06:57:08;26.33;;;11.65;;
7440;SDS011;29616;51.950;8.572;2022-10-17T06:59:49;25.17;;;12.10;;
7440;SDS011;29616;51.950;8.572;2022-10-17T07:02:25;22.35;;;9.75;;
7440;SDS011;29616;51.950;8.572;2022-10-17T07:04:55;28.73;;;11.10;;
7440;SDS011;29616;51.950;8.572;2022-10-17T07:07:25;24.90;;;11.10;;
7440;SDS011;29616;51.950;8.572;2022-10-17T07:09:54;21.65;;;10.32;;
7440;SDS011;29616;51.950;8.572;2022-10-17T07:12:23;19.05;;;10.18;;
7440;SDS011;29616;51.950;8.572;2022-10-17T07:14:51;21.13;;;10.18;;
7440;SDS011;29616;51.950;8.572;2022-10-17T07:17:20;23.48;;;10.10;;
7440;SDS011;29616;51.950;8.572;2022-10-17T07:19:48;18.60;;;9.38;;
7440;SDS011;29616;51.950;8.572;2022-10-17T07:22:17;19.85;;;9.98;;
7440;SDS011;29616;51.950;8.572;2022-10-17T07:24:49;22.90;;;9.30;;
7440;SDS011;29616;51.950;8.572;2022-10-17T07:27:35;19.73;;;8.70;;
7440;SDS011;29616;51.950;8.572;2022-10-17T07:30:04;20.58;;;9.65;;
7440;SDS011;29616;51.950;8.572;2022-10-17T07:32:37;20.02;;;9.68;;
7440;SDS011;29616;51.950;8.572;2022-10-17T07:35:07;18.83;;;9.20;;
7440;SDS011;29616;51.950;8.572;2022-10-17T07:37:37;18.23;;;9.25;;
7440;SDS011;29616;51.950;8.572;2022-10-17T07:40:07;19.75;;;8.90;;
7440;SDS011;29616;51.950;8.572;2022-10-17T07:42:37;21.53;;;9.73;;
7440;SDS011;29616;51.950;8.572;2022-10-17T07:45:11;17.88;;;9.20;;
7440;SDS011;29616;51.950;8.572;2022-10-17T07:47:41;20.23;;;9.63;;
7440;SDS011;29616;51.950;8.572;2022-10-17T07:50:13;18.85;;;9.48;;
7440;SDS011;29616;51.950;8.572;2022-10-17T07:52:41;22.13;;;10.10;;
7440;SDS011;29616;51.950;8.572;2022-10-17T07:55:11;21.17;;;8.98;;
7440;SDS011;29616;51.950;8.572;2022-10-17T07:57:39;19.20;;;8.85;;
7440;SDS011;29616;51.950;8.572;2022-10-17T08:00:08;14.98;;;7.05;;
7440;SDS011;29616;51.950;8.572;2022-10-17T08:02:39;14.23;;;8.45;;
7440;SDS011;29616;51.950;8.572;2022-10-17T08:05:08;19.00;;;8.38;;
7440;SDS011;29616;51.950;8.572;2022-10-17T08:07:37;15.93;;;7.95;;
7440;SDS011;29616;51.950;8.572;2022-10-17T08:10:07;13.02;;;7.80;;
7440;SDS011;29616;51.950;8.572;2022-10-17T08:12:39;13.87;;;7.90;;
7440;SDS011;29616;51.950;8.572;2022-10-17T08:15:08;15.48;;;7.95;;
7440;SDS011;29616;51.950;8.572;2022-10-17T08:17:37;12.07;;;6.65;;
7440;SDS011;29616;51.950;8.572;2022-10-17T08:20:06;12.95;;;7.45;;
7440;SDS011;29616;51.950;8.572;2022-10-17T08:22:36;13.15;;;7.45;;
7440;SDS011;29616;51.950;8.572;2022-10-17T08:25:05;17.27;;;7.00;;
7440;SDS011;29616;51.950;8.572;2022-10-17T08:27:35;18.83;;;7.63;;
7440;SDS011;29616;51.950;8.572;2022-10-17T08:30:05;10.45;;;6.53;;
7440;SDS011;29616;51.950;8.572;2022-10-17T08:32:35;11.32;;;6.10;;
7440;SDS011;29616;51.950;8.572;2022-10-17T08:35:03;9.52;;;6.05;;
7440;SDS011;29616;51.950;8.572;2022-10-17T08:37:32;10.43;;;6.05;;
7440;SDS011;29616;51.950;8.572;2022-10-17T08:40:01;8.52;;;6.50;;
7440;SDS011;29616;51.950;8.572;2022-10-17T08:42:41;15.48;;;6.28;;
7440;SDS011;29616;51.950;8.572;2022-10-17T08:45:28;8.65;;;6.13;;
7440;SDS011;29616;51.950;8.572;2022-10-17T08:48:03;7.45;;;5.90;;
7440;SDS011;29616;51.950;8.572;2022-10-17T08:50:38;7.15;;;5.57;;
7440;SDS011;29616;51.950;8.572;2022-10-17T08:53:13;10.57;;;6.13;;
7440;SDS011;29616;51.950;8.572;2022-10-17T08:55:46;7.63;;;4.95;;
7440;SDS011;29616;51.950;8.572;2022-10-17T08:58:18;6.55;;;5.07;;
7440;SDS011;29616;51.950;8.572;2022-10-17T09:00:51;8.27;;;4.70;;
7440;SDS011;29616;51.950;8.572;2022-10-17T09:03:40;5.45;;;4.00;;
7440;SDS011;29616;51.950;8.572;2022-10-17T09:06:20;4.97;;;4.10;;
7440;SDS011;29616;51.950;8.572;2022-10-17T09:08:58;5.75;;;4.05;;
7440;SDS011;29616;51.950;8.572;2022-10-17T09:11:43;4.72;;;3.60;;
7440;SDS011;29616;51.950;8.572;2022-10-17T09:14:29;6.93;;;4.15;;
7440;SDS011;29616;51.950;8.572;2022-10-17T09:17:20;4.72;;;2.88;;
7440;SDS011;29616;51.950;8.572;2022-10-17T09:20:00;10.15;;;3.53;;
7440;SDS011;29616;51.950;8.572;2022-10-17T09:22:37;5.05;;;3.00;;
7440;SDS011;29616;51.950;8.572;2022-10-17T09:25:12;6.20;;;3.13;;
7440;SDS011;29616;51.950;8.572;2022-10-17T09:27:45;6.75;;;3.10;;
7440;SDS011;29616;51.950;8.572;2022-10-17T09:30:22;4.45;;;3.28;;
7440;SDS011;29616;51.950;8.572;2022-10-17T09:33:18;5.68;;;3.10;;
7440;SDS011;29616;51.950;8.572;2022-10-17T09:36:09;3.58;;;2.70;;
7440;SDS011;29616;51.950;8.572;2022-10-17T09:38:42;4.32;;;3.28;;
7440;SDS011;29616;51.950;8.572;2022-10-17T09:41:15;5.60;;;3.00;;
7440;SDS011;29616;51.950;8.572;2022-10-17T09:44:12;5.82;;;2.60;;
7440;SDS011;29616;51.950;8.572;2022-10-17T09:46:57;4.85;;;2.83;;
7440;SDS011;29616;51.950;8.572;2022-10-17T09:49:42;4.10;;;2.80;;
7440;SDS011;29616;51.950;8.572;2022-10-17T09:52:13;4.45;;;3.10;;
7440;SDS011;29616;51.950;8.572;2022-10-17T09:54:45;3.53;;;2.50;;
7440;SDS011;29616;51.950;8.572;2022-10-17T09:57:15;4.45;;;2.88;;
7440;SDS011;29616;51.950;8.572;2022-10-17T09:59:46;6.57;;;2.92;;
7440;SDS011;29616;51.950;8.572;2022-10-17T10:02:23;3.92;;;2.85;;
7440;SDS011;29616;51.950;8.572;2022-10-17T10:07:32;7.07;;;3.25;;
7440;SDS011;29616;51.950;8.572;2022-10-17T10:10:04;4.28;;;2.88;;
7440;SDS011;29616;51.950;8.572;2022-10-17T10:13:00;2.90;;;2.60;;
7440;SDS011;29616;51.950;8.572;2022-10-17T10:15:42;6.43;;;2.95;;
7440;SDS011;29616;51.950;8.572;2022-10-17T10:18:28;8.52;;;2.85;;
7440;SDS011;29616;51.950;8.572;2022-10-17T10:21:03;3.40;;;3.10;;
7440;SDS011;29616;51.950;8.572;2022-10-17T10:23:36;5.97;;;3.00;;
7440;SDS011;29616;51.950;8.572;2022-10-17T10:29:00;3.58;;;2.50;;
7440;SDS011;29616;51.950;8.572;2022-10-17T10:31:33;3.67;;;2.65;;
7440;SDS011;29616;51.950;8.572;2022-10-17T10:34:15;9.02;;;2.85;;
7440;SDS011;29616;51.950;8.572;2022-10-17T10:36:51;5.50;;;2.38;;
7440;SDS011;29616;51.950;8.572;2022-10-17T10:39:26;4.03;;;2.83;;
7440;SDS011;29616;51.950;8.572;2022-10-17T10:42:17;4.97;;;2.35;;
7440;SDS011;29616;51.950;8.572;2022-10-17T10:44:58;9.80;;;2.70;;
7440;SDS011;29616;51.950;8.572;2022-10-17T10:47:34;4.10;;;2.40;;
7440;SDS011;29616;51.950;8.572;2022-10-17T10:50:07;5.97;;;2.58;;
7440;SDS011;29616;51.950;8.572;2022-10-17T10:52:51;4.47;;;2.35;;
7440;SDS011;29616;51.950;8.572;2022-10-17T10:55:39;3.72;;;2.28;;
7440;SDS011;29616;51.950;8.572;2022-10-17T10:58:18;5.40;;;2.95;;
7440;SDS011;29616;51.950;8.572;2022-10-17T11:03:25;3.35;;;2.30;;
7440;SDS011;29616;51.950;8.572;2022-10-17T11:06:01;3.05;;;2.28;;
7440;SDS011;29616;51.950;8.572;2022-10-17T11:08:39;6.40;;;2.63;;
7440;SDS011;29616;51.950;8.572;2022-10-17T11:11:15;4.07;;;3.10;;
7440;SDS011;29616;51.950;8.572;2022-10-17T11:13:57;5.00;;;2.53;;
7440;SDS011;29616;51.950;8.572;2022-10-17T11:16:32;8.38;;;2.92;;
7440;SDS011;29616;51.950;8.572;2022-10-17T11:19:08;6.20;;;2.45;;
7440;SDS011;29616;51.950;8.572;2022-10-17T11:21:45;5.72;;;3.15;;
7440;SDS011;29616;51.950;8.572;2022-10-17T11:24:22;6.38;;;3.08;;
7440;SDS011;29616;51.950;8.572;2022-10-17T11:26:54;8.27;;;2.58;;
7440;SDS011;29616;51.950;8.572;2022-10-17T11:29:28;7.32;;;2.50;;
7440;SDS011;29616;51.950;8.572;2022-10-17T11:34:30;6.18;;;2.47;;
7440;SDS011;29616;51.950;8.572;2022-10-17T11:37:08;3.80;;;2.33;;
7440;SDS011;29616;51.950;8.572;2022-10-17T11:39:46;4.97;;;3.05;;
7440;SDS011;29616;51.950;8.572;2022-10-17T11:42:22;5.25;;;3.22;;
7440;SDS011;29616;51.950;8.572;2022-10-17T11:44:56;4.13;;;2.53;;
7440;SDS011;29616;51.950;8.572;2022-10-17T11:47:38;4.28;;;2.40;;
7440;SDS011;29616;51.950;8.572;2022-10-17T11:50:18;3.65;;;2.75;;
7440;SDS011;29616;51.950;8.572;2022-10-17T11:53:13;6.03;;;2.50;;
7440;SDS011;29616;51.950;8.572;2022-10-17T11:58:17;4.45;;;2.63;;
7440;SDS011;29616;51.950;8.572;2022-10-17T12:01:02;10.45;;;3.60;;
7440;SDS011;29616;51.950;8.572;2022-10-17T12:03:50;4.40;;;2.55;;
7440;SDS011;29616;51.950;8.572;2022-10-17T12:06:36;6.07;;;3.20;;
7440;SDS011;29616;51.950;8.572;2022-10-17T12:09:19;5.18;;;2.47;;
7440;SDS011;29616;51.950;8.572;2022-10-17T12:11:55;7.53;;;3.30;;
7440;SDS011;29616;51.950;8.572;2022-10-17T12:14:36;8.00;;;3.20;;
7440;SDS011;29616;51.950;8.572;2022-10-17T12:17:26;3.95;;;2.75;;
7440;SDS011;29616;51.950;8.572;2022-10-17T12:23:03;4.32;;;2.40;;
7440;SDS011;29616;51.950;8.572;2022-10-17T12:26:02;3.05;;;2.65;;
7440;SDS011;29616;51.950;8.572;2022-10-17T12:28:39;4.50;;;2.72;;
7440;SDS011;29616;51.950;8.572;2022-10-17T12:31:20;4.35;;;2.38;;
7440;SDS011;29616;51.950;8.572;2022-10-17T12:33:58;3.85;;;3.03;;
7440;SDS011;29616;51.950;8.572;2022-10-17T12:36:37;5.07;;;2.63;;
7440;SDS011;29616;51.950;8.572;2022-10-17T12:45:46;4.05;;;3.35;;
7440;SDS011;29616;51.950;8.572;2022-10-17T12:51:27;5.25;;;2.88;;
7440;SDS011;29616;51.950;8.572;2022-10-17T12:54:05;7.43;;;3.17;;
7440;SDS011;29616;51.950;8.572;2022-10-17T12:56:39;6.20;;;3.28;;
7440;SDS011;29616;51.950;8.572;2022-10-17T12:59:12;5.65;;;3.08;;
7440;SDS011;29616;51.950;8.572;2022-10-17T13:01:45;5.28;;;3.17;;
7440;SDS011;29616;51.950;8.572;2022-10-17T13:04:17;5.38;;;3.05;;
7440;SDS011;29616;51.950;8.572;2022-10-17T13:06:48;6.70;;;3.28;;
7440;SDS011;29616;51.950;8.572;2022-10-17T13:09:24;6.07;;;3.05;;
7440;SDS011;29616;51.950;8.572;2022-10-17T13:11:56;3.85;;;2.85;;
7440;SDS011;29616;51.950;8.572;2022-10-17T13:14:27;5.45;;;3.20;;
7440;SDS011;29616;51.950;8.572;2022-10-17T13:17:00;5.55;;;3.00;;
7440;SDS011;29616;51.950;8.572;2022-10-17T13:19:40;4.40;;;3.28;;
7440;SDS011;29616;51.950;8.572;2022-10-17T13:22:12;4.70;;;3.33;;
7440;SDS011;29616;51.950;8.572;2022-10-17T13:24:44;6.57;;;2.97;;
7440;SDS011;29616;51.950;8.572;2022-10-17T13:27:24;5.65;;;3.10;;
7440;SDS011;29616;51.950;8.572;2022-10-17T13:29:55;7.03;;;3.72;;
7440;SDS011;29616;51.950;8.572;2022-10-17T13:32:35;5.55;;;2.80;;
7440;SDS011;29616;51.950;8.572;2022-10-17T13:35:07;4.88;;;3.40;;
7440;SDS011;29616;51.950;8.572;2022-10-17T13:37:38;3.65;;;2.80;;
7440;SDS011;29616;51.950;8.572;2022-10-17T13:40:13;4.80;;;2.83;;
7440;SDS011;29616;51.950;8.572;2022-10-17T13:43:03;4.45;;;2.78;;
7440;SDS011;29616;51.950;8.572;2022-10-17T13:45:38;4.35;;;2.67;;
7440;SDS011;29616;51.950;8.572;2022-10-17T13:48:17;6.72;;;3.00;;
7440;SDS011;29616;51.950;8.572;2022-10-17T13:50:50;6.18;;;3.15;;
7440;SDS011;29616;51.950;8.572;2022-10-17T13:53:25;6.25;;;3.47;;
7440;SDS011;29616;51.950;8.572;2022-10-17T13:55:58;4.30;;;2.58;;
7440;SDS011;29616;51.950;8.572;2022-10-17T13:58:49;4.93;;;2.63;;
7440;SDS011;29616;51.950;8.572;2022-10-17T14:01:21;5.47;;;2.42;;
7440;SDS011;29616;51.950;8.572;2022-10-17T14:03:53;5.38;;;3.00;;
7440;SDS011;29616;51.950;8.572;2022-10-17T14:06:35;9.23;;;3.30;;
7440;SDS011;29616;51.950;8.572;2022-10-17T14:09:16;6.93;;;2.88;;
7440;SDS011;29616;51.950;8.572;2022-10-17T14:11:56;5.65;;;3.00;;
7440;SDS011;29616;51.950;8.572;2022-10-17T14:14:28;5.65;;;3.65;;
7440;SDS011;29616;51.950;8.572;2022-10-17T14:17:20;3.40;;;3.10;;
7440;SDS011;29616;51.950;8.572;2022-10-17T14:19:55;6.20;;;3.13;;
7440;SDS011;29616;51.950;8.572;2022-10-17T14:22:48;7.57;;;3.53;;
7440;SDS011;29616;51.950;8.572;2022-10-17T14:25:37;7.35;;;3.58;;
7440;SDS011;29616;51.950;8.572;2022-10-17T14:28:11;3.63;;;2.97;;
7440;SDS011;29616;51.950;8.572;2022-10-17T14:30:42;10.65;;;3.58;;
7440;SDS011;29616;51.950;8.572;2022-10-17T14:33:28;6.10;;;3.42;;
7440;SDS011;29616;51.950;8.572;2022-10-17T14:36:01;6.30;;;3.05;;
7440;SDS011;29616;51.950;8.572;2022-10-17T14:38:30;4.47;;;2.90;;
7440;SDS011;29616;51.950;8.572;2022-10-17T14:41:02;8.73;;;3.38;;
7440;SDS011;29616;51.950;8.572;2022-10-17T14:43:56;6.45;;;3.42;;
7440;SDS011;29616;51.950;8.572;2022-10-17T14:46:27;6.97;;;3.15;;
7440;SDS011;29616;51.950;8.572;2022-10-17T14:48:58;7.88;;;3.78;;
7440;SDS011;29616;51.950;8.572;2022-10-17T14:51:34;6.90;;;3.20;;
7440;SDS011;29616;51.950;8.572;2022-10-17T14:54:23;5.38;;;3.33;;
7440;SDS011;29616;51.950;8.572;2022-10-17T14:56:54;5.30;;;3.38;;
7440;SDS011;29616;51.950;8.572;2022-10-17T14:59:23;7.43;;;4.78;;
7440;SDS011;29616;51.950;8.572;2022-10-17T15:02:11;9.93;;;4.00;;
7440;SDS011;29616;51.950;8.572;2022-10-17T15:04:40;5.30;;;2.92;;
7440;SDS011;29616;51.950;8.572;2022-10-17T15:07:11;6.78;;;3.40;;
7440;SDS011;29616;51.950;8.572;2022-10-17T15:09:41;4.20;;;3.45;;
7440;SDS011;29616;51.950;8.572;2022-10-17T15:12:12;5.13;;;3.67;;
7440;SDS011;29616;51.950;8.572;2022-10-17T15:14:43;11.88;;;4.28;;
7440;SDS011;29616;51.950;8.572;2022-10-17T15:17:14;5.65;;;3.88;;
7440;SDS011;29616;51.950;8.572;2022-10-17T15:19:46;6.30;;;3.72;;
7440;SDS011;29616;51.950;8.572;2022-10-17T15:22:17;6.38;;;3.65;;
7440;SDS011;29616;51.950;8.572;2022-10-17T15:24:46;4.70;;;3.40;;
7440;SDS011;29616;51.950;8.572;2022-10-17T15:27:15;7.15;;;3.60;;
7440;SDS011;29616;51.950;8.572;2022-10-17T15:29:45;7.35;;;3.20;;
7440;SDS011;29616;51.950;8.572;2022-10-17T15:32:14;8.77;;;3.50;;
7440;SDS011;29616;51.950;8.572;2022-10-17T15:34:43;6.28;;;3.70;;
7440;SDS011;29616;51.950;8.572;2022-10-17T15:37:15;4.95;;;3.35;;
7440;SDS011;29616;51.950;8.572;2022-10-17T15:39:48;5.60;;;3.55;;
7440;SDS011;29616;51.950;8.572;2022-10-17T15:42:20;6.78;;;3.78;;
7440;SDS011;29616;51.950;8.572;2022-10-17T15:44:49;7.00;;;3.45;;
7440;SDS011;29616;51.950;8.572;2022-10-17T15:47:18;5.20;;;3.03;;
7440;SDS011;29616;51.950;8.572;2022-10-17T15:49:53;7.78;;;3.08;;
7440;SDS011;29616;51.950;8.572;2022-10-17T15:52:23;4.18;;;2.25;;
7440;SDS011;29616;51.950;8.572;2022-10-17T15:54:52;5.80;;;3.05;;
7440;SDS011;29616;51.950;8.572;2022-10-17T15:57:25;5.97;;;2.70;;
7440;SDS011;29616;51.950;8.572;2022-10-17T15:59:57;4.60;;;2.42;;
7440;SDS011;29616;51.950;8.572;2022-10-17T16:02:26;9.20;;;3.10;;